createdAt,value
2023-08-15T00:01:08.641Z,100.00
2023-08-15T00:04:11.451Z,100.00
2023-08-15T00:07:13.779Z,100.00
2023-08-15T00:10:16.643Z,100.00
2023-08-15T00:13:19.047Z,100.00
2023-08-15T00:16:21.672Z,100.00
2023-08-15T00:19:24.413Z,100.00
2023-08-15T00:22:27.078Z,100.00
2023-08-15T00:25:29.404Z,100.00
2023-08-15T00:28:32.075Z,100.00
2023-08-15T00:31:34.420Z,100.00
2023-08-15T00:34:36.970Z,100.00
2023-08-15T00:37:39.409Z,100.00
2023-08-15T00:40:42.538Z,100.00
2023-08-15T00:43:44.878Z,100.00
2023-08-15T00:46:48.124Z,100.00
2023-08-15T00:49:51.329Z,100.00
2023-08-15T00:52:54.927Z,100.00
2023-08-15T00:55:58.327Z,100.00
2023-08-15T00:59:01.900Z,100.00
2023-08-15T01:02:04.531Z,100.00
2023-08-15T01:05:08.331Z,100.00
2023-08-15T01:08:10.677Z,100.00
2023-08-15T01:11:14.372Z,100.00
2023-08-15T01:14:18.626Z,100.00
2023-08-15T01:17:24.946Z,100.00
2023-08-15T01:20:29.913Z,100.00
2023-08-15T01:23:36.382Z,100.00
2023-08-15T01:26:39.837Z,100.00
2023-08-15T01:29:42.490Z,100.00
2023-08-15T01:32:56.925Z,100.00
2023-08-15T01:36:05.228Z,100.00
2023-08-15T01:39:08.025Z,100.00
2023-08-15T01:42:11.887Z,100.00
2023-08-15T01:45:14.461Z,100.00
2023-08-15T01:48:17.066Z,100.00
2023-08-15T01:51:19.407Z,100.00
2023-08-15T01:54:22.025Z,100.00
2023-08-15T01:57:24.371Z,100.00
2023-08-15T02:00:26.938Z,100.00
2023-08-15T02:03:29.627Z,100.00
2023-08-15T02:06:31.883Z,100.00
2023-08-15T02:09:34.537Z,100.00
2023-08-15T02:12:36.964Z,100.00
2023-08-15T02:15:39.623Z,100.00
2023-08-15T02:18:42.545Z,100.00
2023-08-15T02:21:46.099Z,100.00
2023-08-15T02:24:48.377Z,100.00
2023-08-15T02:27:50.990Z,100.00
2023-08-15T02:30:53.957Z,100.00
2023-08-15T02:33:56.609Z,100.00
2023-08-15T02:36:59.095Z,100.00
2023-08-15T02:40:01.790Z,100.00
2023-08-15T02:43:04.214Z,100.00
2023-08-15T02:46:06.893Z,100.00
2023-08-15T02:49:09.910Z,100.00
2023-08-15T02:52:12.669Z,100.00
2023-08-15T02:55:15.032Z,100.00
2023-08-15T02:58:18.332Z,100.00
2023-08-15T03:01:21.227Z,100.00
2023-08-15T03:04:23.958Z,100.00
2023-08-15T03:07:26.378Z,100.00
2023-08-15T03:10:28.988Z,100.00
2023-08-15T03:13:31.321Z,100.00
2023-08-15T03:16:35.102Z,100.00
2023-08-15T03:19:38.859Z,100.00
2023-08-15T03:22:43.076Z,100.00
2023-08-15T03:25:45.520Z,100.00
2023-08-15T03:28:48.462Z,100.00
2023-08-15T03:31:51.173Z,100.00
2023-08-15T03:34:53.918Z,100.00
2023-08-15T03:37:56.329Z,100.00
2023-08-15T03:41:06.144Z,100.00
2023-08-15T03:44:08.653Z,100.00
2023-08-15T03:47:11.179Z,100.00
2023-08-15T03:50:13.556Z,100.00
2023-08-15T03:53:16.203Z,100.00
2023-08-15T03:56:18.558Z,100.00
2023-08-15T03:59:21.157Z,100.00
2023-08-15T04:02:23.506Z,100.00
2023-08-15T04:05:26.558Z,100.00
2023-08-15T04:08:28.877Z,100.00
2023-08-15T04:11:31.905Z,100.00
2023-08-15T04:14:34.349Z,100.00
2023-08-15T04:17:37.021Z,100.00
2023-08-15T04:20:39.894Z,100.00
2023-08-15T04:23:43.012Z,100.00
2023-08-15T04:26:45.278Z,100.00
2023-08-15T04:29:47.920Z,100.00
2023-08-15T04:32:50.346Z,100.00
2023-08-15T04:35:53.059Z,100.00
2023-08-15T04:38:55.646Z,100.00
2023-08-15T04:41:58.393Z,100.00
2023-08-15T04:45:00.819Z,100.00
2023-08-15T04:48:03.597Z,100.00
2023-08-15T04:51:05.933Z,100.00
2023-08-15T04:54:09.225Z,100.00
2023-08-15T04:57:11.576Z,100.00
2023-08-15T05:00:16.480Z,100.00
2023-08-15T05:03:18.768Z,100.00
2023-08-15T05:06:21.982Z,100.00
2023-08-15T05:09:24.272Z,100.00
2023-08-15T05:12:27.038Z,100.00
2023-08-15T05:15:29.766Z,100.00
2023-08-15T05:18:32.782Z,100.00
2023-08-15T05:21:35.279Z,100.00
2023-08-15T05:24:37.961Z,100.00
2023-08-15T05:27:41.263Z,100.00
2023-08-15T05:30:44.753Z,100.00
2023-08-15T05:33:47.235Z,100.00
2023-08-15T05:36:49.974Z,100.00
2023-08-15T05:39:52.315Z,100.00
2023-08-15T05:42:55.033Z,100.00
2023-08-15T05:45:58.234Z,100.00
2023-08-15T05:49:00.899Z,100.00
2023-08-15T05:52:04.130Z,100.00
2023-08-15T05:55:07.431Z,100.00
2023-08-15T05:58:09.889Z,99.75
2023-08-15T06:01:12.507Z,97.05
2023-08-15T06:04:15.554Z,94.40
2023-08-15T06:07:17.958Z,92.82
2023-08-15T06:10:20.727Z,91.27
2023-08-15T06:13:23.101Z,89.08
2023-08-15T06:16:25.692Z,89.47
2023-08-15T06:19:27.989Z,88.61
2023-08-15T06:22:30.529Z,87.41
2023-08-15T06:25:33.116Z,84.50
2023-08-15T06:28:35.675Z,83.53
2023-08-15T06:31:37.999Z,80.22
2023-08-15T06:34:40.569Z,77.14
2023-08-15T06:37:42.849Z,76.68
2023-08-15T06:40:45.357Z,75.52
2023-08-15T06:43:47.964Z,74.84
2023-08-15T06:46:50.738Z,73.56
2023-08-15T06:49:54.110Z,70.01
2023-08-15T06:52:56.640Z,68.00
2023-08-15T06:55:59.253Z,59.32
2023-08-15T06:59:01.874Z,47.37
2023-08-15T07:02:04.419Z,38.23
2023-08-15T07:05:08.478Z,31.94
2023-08-15T07:08:10.948Z,29.51
2023-08-15T07:11:13.661Z,26.94
2023-08-15T07:14:16.109Z,25.84
2023-08-15T07:17:18.687Z,25.36
2023-08-15T07:20:21.449Z,25.27
2023-08-15T07:23:24.069Z,25.01
2023-08-15T07:26:27.240Z,23.87
2023-08-15T07:29:29.992Z,23.27
2023-08-15T07:32:32.702Z,22.54
2023-08-15T07:35:35.368Z,25.14
2023-08-15T07:38:38.231Z,25.01
2023-08-15T07:41:42.857Z,26.06
2023-08-15T07:44:45.113Z,25.43
2023-08-15T07:47:52.834Z,24.79
2023-08-15T07:50:55.241Z,24.88
2023-08-15T07:53:57.899Z,24.07
2023-08-15T07:57:00.410Z,24.56
2023-08-15T08:00:03.544Z,26.04
2023-08-15T08:03:14.531Z,31.02
2023-08-15T08:09:22.620Z,39.23
2023-08-15T08:12:25.229Z,40.64
2023-08-15T08:15:28.266Z,40.36
2023-08-15T08:18:30.873Z,42.77
2023-08-15T08:21:34.785Z,43.96
2023-08-15T08:24:37.487Z,42.31
2023-08-15T08:27:39.988Z,41.78
2023-08-15T08:30:45.580Z,38.35
2023-08-15T08:33:48.140Z,38.31
2023-08-15T08:36:51.350Z,33.21
2023-08-15T08:39:53.759Z,30.44
2023-08-15T08:42:56.441Z,29.37
2023-08-15T08:46:00.792Z,28.12
2023-08-15T08:49:04.830Z,30.18
2023-08-15T08:52:07.846Z,30.93
2023-08-15T08:55:10.601Z,30.54
2023-08-15T08:58:13.846Z,30.88
2023-08-15T09:01:17.420Z,35.46
2023-08-15T09:04:21.063Z,40.30
2023-08-15T09:07:23.973Z,42.17
2023-08-15T09:10:26.690Z,43.59
2023-08-15T09:13:29.319Z,45.27
2023-08-15T09:16:32.083Z,45.97
2023-08-15T09:19:41.351Z,47.96
2023-08-15T09:22:46.512Z,47.71
2023-08-15T09:25:50.352Z,47.02
2023-08-15T09:28:52.891Z,47.60
2023-08-15T09:31:55.448Z,47.43
2023-08-15T09:34:57.698Z,44.79
2023-08-15T09:38:06.457Z,45.68
2023-08-15T09:41:13.180Z,46.04
2023-08-15T09:44:29.479Z,44.91
2023-08-15T09:47:31.992Z,40.84
2023-08-15T09:50:35.436Z,39.31
2023-08-15T09:53:39.849Z,37.81
2023-08-15T09:56:42.473Z,38.63
2023-08-15T09:59:44.808Z,37.75
2023-08-15T10:02:49.818Z,37.77
2023-08-15T10:05:54.843Z,35.70
2023-08-15T10:08:57.953Z,35.20
2023-08-15T10:12:01.209Z,34.75
2023-08-15T10:15:03.833Z,35.76
2023-08-15T10:18:07.205Z,35.87
2023-08-15T10:21:10.012Z,35.07
2023-08-15T10:24:12.624Z,35.64
2023-08-15T10:27:15.459Z,35.38
2023-08-15T10:30:41.769Z,34.53
2023-08-15T10:33:46.141Z,33.93
2023-08-15T10:36:49.062Z,32.65
2023-08-15T10:40:11.906Z,32.74
2023-08-15T10:43:15.404Z,34.52
2023-08-15T10:46:19.912Z,32.72
2023-08-15T10:49:24.238Z,34.35
2023-08-15T10:52:26.905Z,33.51
2023-08-15T10:55:29.997Z,33.24
2023-08-15T10:58:32.413Z,33.89
2023-08-15T11:01:35.979Z,32.24
2023-08-15T11:04:40.733Z,31.65
2023-08-15T11:07:44.700Z,32.12
2023-08-15T11:10:50.707Z,32.13
2023-08-15T11:13:54.373Z,32.03
2023-08-15T11:16:57.659Z,32.19
2023-08-15T11:20:00.434Z,31.62
2023-08-15T11:23:02.954Z,32.61
2023-08-15T11:26:07.202Z,31.37
2023-08-15T11:29:11.675Z,31.03
2023-08-15T11:32:14.557Z,31.21
2023-08-15T11:35:17.315Z,32.18
2023-08-15T11:38:20.317Z,32.71
2023-08-15T11:41:22.889Z,31.51
2023-08-15T11:44:25.585Z,32.82
2023-08-15T11:47:27.940Z,33.81
2023-08-15T11:50:44.333Z,31.06
2023-08-15T11:53:51.199Z,31.86
2023-08-15T11:56:54.506Z,33.36
2023-08-15T11:59:57.013Z,33.54
2023-08-15T12:02:59.662Z,34.49
2023-08-15T12:06:10.108Z,33.03
2023-08-15T12:09:13.130Z,34.63
2023-08-15T12:12:22.286Z,33.48
2023-08-15T12:15:25.038Z,35.13
2023-08-15T12:18:27.643Z,33.28
2023-08-15T12:21:30.608Z,34.33
2023-08-15T12:24:33.707Z,33.84
2023-08-15T12:27:36.841Z,32.47
2023-08-15T12:30:39.780Z,32.78
2023-08-15T12:33:43.505Z,33.10
2023-08-15T12:36:49.304Z,33.79
2023-08-15T12:39:51.742Z,34.54
2023-08-15T12:42:54.366Z,35.54
2023-08-15T12:45:56.792Z,34.39
2023-08-15T12:49:03.093Z,34.31
2023-08-15T12:52:06.027Z,34.13
2023-08-15T12:55:08.808Z,34.67
2023-08-15T12:58:12.215Z,34.71
2023-08-15T13:01:14.852Z,34.42
2023-08-15T13:04:17.252Z,34.03
2023-08-15T13:07:19.845Z,34.79
2023-08-15T13:10:22.253Z,34.58
2023-08-15T13:13:24.857Z,33.46
2023-08-15T13:16:27.146Z,34.22
2023-08-15T13:19:30.006Z,34.66
2023-08-15T13:22:32.335Z,33.93
2023-08-15T13:25:35.042Z,34.37
2023-08-15T13:28:37.392Z,35.16
2023-08-15T13:31:40.091Z,35.47
2023-08-15T13:34:42.382Z,37.45
2023-08-15T13:37:45.091Z,39.05
2023-08-15T13:40:47.481Z,35.84
2023-08-15T13:43:50.114Z,36.27
2023-08-15T13:46:52.590Z,35.47
2023-08-15T13:49:55.229Z,35.94
2023-08-15T13:52:57.660Z,37.70
2023-08-15T13:56:00.271Z,35.35
2023-08-15T13:59:02.791Z,33.89
2023-08-15T14:02:05.897Z,34.86
2023-08-15T14:05:08.733Z,36.59
2023-08-15T14:08:11.151Z,34.20
2023-08-15T14:11:13.885Z,35.35
2023-08-15T14:14:16.820Z,33.69
2023-08-15T14:17:20.009Z,35.66
2023-08-15T14:20:22.846Z,36.76
2023-08-15T14:23:25.482Z,36.67
2023-08-15T14:26:27.739Z,36.63
2023-08-15T14:29:30.271Z,36.21
2023-08-15T14:32:32.690Z,34.50
2023-08-15T14:35:35.398Z,36.09
2023-08-15T14:38:38.637Z,32.69
2023-08-15T14:41:41.259Z,34.44
2023-08-15T14:44:43.650Z,32.61
2023-08-15T14:47:46.593Z,33.68
2023-08-15T14:50:49.031Z,34.61
2023-08-15T14:53:51.630Z,36.62
2023-08-15T14:56:54.032Z,35.33
2023-08-15T14:59:56.700Z,36.35
2023-08-15T15:02:59.378Z,38.36
2023-08-15T15:06:02.061Z,40.19
2023-08-15T15:09:04.504Z,38.64
2023-08-15T15:12:07.305Z,39.98
2023-08-15T15:15:09.930Z,41.44
2023-08-15T15:18:13.812Z,38.70
2023-08-15T15:21:16.214Z,40.93
2023-08-15T15:24:19.268Z,39.57
2023-08-15T15:27:21.678Z,38.42
2023-08-15T15:30:24.482Z,38.78
2023-08-15T15:33:27.422Z,39.48
2023-08-15T15:36:30.137Z,39.43
2023-08-15T15:39:32.955Z,37.59
2023-08-15T15:42:35.564Z,39.09
2023-08-15T15:45:38.368Z,39.27
2023-08-15T15:48:42.402Z,39.92
2023-08-15T15:51:45.623Z,40.74
2023-08-15T15:54:48.282Z,40.39
2023-08-15T15:57:51.748Z,39.67
2023-08-15T16:00:59.450Z,42.69
2023-08-15T16:04:02.371Z,40.56
2023-08-15T16:07:06.026Z,41.87
2023-08-15T16:10:11.958Z,41.30
2023-08-15T16:13:14.459Z,43.27
2023-08-15T16:16:17.133Z,44.98
2023-08-15T16:19:19.606Z,46.89
2023-08-15T16:22:22.927Z,46.49
2023-08-15T16:25:25.447Z,46.84
2023-08-15T16:28:28.118Z,46.07
2023-08-15T16:31:30.529Z,44.18
2023-08-15T16:34:33.173Z,43.35
2023-08-15T16:37:35.587Z,44.26
2023-08-15T16:40:38.353Z,44.80
2023-08-15T16:43:40.756Z,45.10
2023-08-15T16:46:43.527Z,44.92
2023-08-15T16:49:46.987Z,46.49
2023-08-15T16:52:49.830Z,45.99
2023-08-15T16:55:52.150Z,45.77
2023-08-15T16:58:54.793Z,46.25
2023-08-15T17:01:57.198Z,46.02
2023-08-15T17:04:59.857Z,47.05
2023-08-15T17:08:02.199Z,46.99
2023-08-15T17:11:04.868Z,47.68
2023-08-15T17:14:07.368Z,46.94
2023-08-15T17:17:09.885Z,47.44
2023-08-15T17:20:12.540Z,48.01
2023-08-15T17:23:15.188Z,48.73
2023-08-15T17:26:17.541Z,52.15
2023-08-15T17:29:20.176Z,58.80
2023-08-15T17:32:23.602Z,57.17
2023-08-15T17:35:26.761Z,59.74
2023-08-15T17:38:29.007Z,61.59
2023-08-15T17:41:31.689Z,63.29
2023-08-15T17:44:34.075Z,66.49
2023-08-15T17:47:38.609Z,55.76
2023-08-15T17:50:40.940Z,55.55
2023-08-15T17:53:43.533Z,54.51
2023-08-15T17:56:45.883Z,54.70
2023-08-15T17:59:48.563Z,54.54
2023-08-15T18:02:51.243Z,57.38
2023-08-15T18:05:53.874Z,60.91
2023-08-15T18:08:56.250Z,57.64
2023-08-15T18:12:02.657Z,57.59
2023-08-15T18:15:23.741Z,56.63
2023-08-15T18:18:26.484Z,60.82
2023-08-15T18:21:30.369Z,58.48
2023-08-15T18:24:33.062Z,61.43
2023-08-15T18:27:35.449Z,57.05
2023-08-15T18:30:38.156Z,55.65
2023-08-15T18:33:40.915Z,55.77
2023-08-15T18:36:43.532Z,55.91
2023-08-15T18:39:46.180Z,56.47
2023-08-15T18:42:48.859Z,58.58
2023-08-15T18:45:51.474Z,60.04
2023-08-15T18:48:54.077Z,61.72
2023-08-15T18:51:56.322Z,60.69
2023-08-15T18:54:59.297Z,60.61
2023-08-15T18:58:01.685Z,60.38
2023-08-15T19:01:05.616Z,62.25
2023-08-15T19:04:08.016Z,65.08
2023-08-15T19:07:10.902Z,64.97
2023-08-15T19:10:13.211Z,64.55
2023-08-15T19:13:22.316Z,64.53
2023-08-15T19:16:24.793Z,65.78
2023-08-15T19:19:27.473Z,65.21
2023-08-15T19:22:29.933Z,66.93
2023-08-15T19:25:32.666Z,65.96
2023-08-15T19:28:35.095Z,68.53
2023-08-15T19:31:38.269Z,69.20
2023-08-15T19:34:47.188Z,68.62
2023-08-15T19:37:49.775Z,68.31
2023-08-15T19:40:52.131Z,68.55
2023-08-15T19:43:57.641Z,69.68
2023-08-15T19:47:01.416Z,71.36
2023-08-15T19:50:07.740Z,71.74
2023-08-15T19:53:11.042Z,72.30
2023-08-15T19:56:13.630Z,74.13
2023-08-15T19:59:15.925Z,75.73
2023-08-15T20:02:22.088Z,76.45
2023-08-15T20:05:24.951Z,76.41
2023-08-15T20:08:27.184Z,75.66
2023-08-15T20:11:30.029Z,75.55
2023-08-15T20:14:32.395Z,75.56
2023-08-15T20:17:35.051Z,76.81
2023-08-15T20:20:37.371Z,76.65
2023-08-15T20:23:40.206Z,76.04
2023-08-15T20:26:42.497Z,76.73
2023-08-15T20:29:45.290Z,78.06
2023-08-15T20:32:47.661Z,78.43
2023-08-15T20:35:50.739Z,77.92
2023-08-15T20:38:53.546Z,77.53
2023-08-15T20:41:56.141Z,78.68
2023-08-15T20:44:58.450Z,78.70
2023-08-15T20:48:01.163Z,79.18
2023-08-15T20:51:03.981Z,79.17
2023-08-15T20:54:06.652Z,79.12
2023-08-15T20:57:09.155Z,78.93
2023-08-15T21:00:12.016Z,78.83
2023-08-15T21:03:14.414Z,79.35
2023-08-15T21:06:17.170Z,80.10
2023-08-15T21:09:19.817Z,74.10
2023-08-15T21:12:22.923Z,72.23
2023-08-15T21:15:25.476Z,70.42
2023-08-15T21:18:28.150Z,69.53
2023-08-15T21:21:30.471Z,69.46
2023-08-15T21:24:33.096Z,66.85
2023-08-15T21:27:35.527Z,67.37
2023-08-15T21:30:38.352Z,67.14
2023-08-15T21:33:40.685Z,67.84
2023-08-15T21:36:43.312Z,69.05
2023-08-15T21:39:45.676Z,67.59
2023-08-15T21:42:48.330Z,67.41
2023-08-15T21:45:50.734Z,69.72
2023-08-15T21:48:53.365Z,69.69
2023-08-15T21:51:55.826Z,70.68
2023-08-15T21:54:58.435Z,71.22
2023-08-15T21:58:00.745Z,72.00
2023-08-15T22:01:03.570Z,73.22
2023-08-15T22:04:06.243Z,73.40
2023-08-15T22:07:08.641Z,74.61
2023-08-15T22:10:11.237Z,74.39
2023-08-15T22:13:14.104Z,74.88
2023-08-15T22:16:16.780Z,76.34
2023-08-15T22:19:21.781Z,76.61
2023-08-15T22:22:24.498Z,76.68
2023-08-15T22:25:26.784Z,77.46
2023-08-15T22:28:29.478Z,76.98
2023-08-15T22:31:32.086Z,77.22
2023-08-15T22:34:34.668Z,77.88
2023-08-15T22:37:37.037Z,78.55
2023-08-15T22:40:39.708Z,77.95
2023-08-15T22:43:42.019Z,78.24
2023-08-15T22:46:44.597Z,78.35
2023-08-15T22:49:46.954Z,78.87
2023-08-15T22:52:49.635Z,79.92
2023-08-15T22:55:58.470Z,81.12
2023-08-15T22:59:01.061Z,82.38
2023-08-15T23:02:03.744Z,83.09
2023-08-15T23:05:06.644Z,84.21
2023-08-15T23:08:08.967Z,86.22
2023-08-15T23:11:11.852Z,87.80
2023-08-15T23:14:14.135Z,88.46
2023-08-15T23:17:16.712Z,89.10
2023-08-15T23:20:19.029Z,90.83
2023-08-15T23:23:22.513Z,91.27
2023-08-15T23:26:24.770Z,93.34
2023-08-15T23:29:27.352Z,94.37
2023-08-15T23:32:29.728Z,95.47
2023-08-15T23:35:32.552Z,96.71
2023-08-15T23:38:34.845Z,97.34
2023-08-15T23:41:37.453Z,99.77
2023-08-15T23:44:39.750Z,100.00
2023-08-15T23:47:43.161Z,100.00
2023-08-15T23:50:46.351Z,100.00
2023-08-15T23:53:48.969Z,100.00
2023-08-15T23:56:51.317Z,100.00
2023-08-15T23:59:53.959Z,100.00
